CheckWX is a tool to help pilots better visualize weather data.  It is not intended as a substitute for an official pre-flight weather briefing.

17:45:08 UTC

EEKE TAF
Kuressaare Airport
Kuressaare, Estonia
TAF EEKE 181400Z 1815/1821 23010KT CAVOK

Jun-18@
15:00 UTC

Jun-18 @ 15:00 UTC

Jun-18@
21:00 UTC

Jun-18 @ 21:00 UTC

TAF EEKE 181400Z 1815/1821 23010KT CAVOK
Wind
  • 230° at 10 KTS
Conditions
No significant weather
Cloud Levels
  • No significant clouds